createdAt,value
2023-03-01T00:01:41.453Z,58.30
2023-03-01T00:04:08.456Z,58.30
2023-03-01T00:06:36.787Z,58.10
2023-03-01T00:09:04.350Z,58.10
2023-03-01T00:11:33.820Z,58.00
2023-03-01T00:14:03.017Z,58.00
2023-03-01T00:16:32.968Z,57.90
2023-03-01T00:19:00.690Z,57.80
2023-03-01T00:21:28.363Z,57.80
2023-03-01T00:23:56.138Z,57.90
2023-03-01T00:26:24.846Z,57.90
2023-03-01T00:28:52.845Z,57.90
2023-03-01T00:31:22.912Z,57.80
2023-03-01T00:33:58.061Z,57.70
2023-03-01T00:36:30.836Z,57.70
2023-03-01T00:38:58.675Z,57.60
2023-03-01T00:41:27.834Z,57.60
2023-03-01T00:43:55.863Z,57.60
2023-03-01T00:46:25.780Z,57.60
2023-03-01T00:48:52.922Z,57.60
2023-03-01T00:51:31.012Z,57.60
2023-03-01T00:54:00.358Z,57.70
2023-03-01T00:56:27.919Z,57.60
2023-03-01T00:58:55.122Z,57.50
2023-03-01T01:01:25.870Z,57.60
2023-03-01T01:04:02.098Z,57.60
2023-03-01T01:06:32.096Z,57.60
2023-03-01T01:08:59.869Z,57.70
2023-03-01T01:11:29.901Z,57.70
2023-03-01T01:13:58.644Z,57.70
2023-03-01T01:16:27.714Z,57.70
2023-03-01T01:18:55.044Z,57.80
2023-03-01T01:21:23.948Z,57.70
2023-03-01T01:23:51.648Z,57.80
2023-03-01T01:26:24.753Z,57.80
2023-03-01T01:28:52.622Z,57.90
2023-03-01T01:31:20.225Z,58.00
2023-03-01T01:33:47.702Z,57.90
2023-03-01T01:36:14.729Z,58.00
2023-03-01T01:38:43.288Z,58.00
2023-03-01T01:41:14.723Z,58.00
2023-03-01T01:43:43.079Z,58.00
2023-03-01T01:46:31.589Z,57.90
2023-03-01T01:49:02.793Z,57.70
2023-03-01T01:51:43.211Z,57.70
2023-03-01T01:54:16.603Z,57.70
2023-03-01T01:56:48.594Z,57.70
2023-03-01T01:59:15.876Z,57.90
2023-03-01T02:01:43.721Z,57.80
2023-03-01T02:04:10.898Z,57.90
2023-03-01T02:06:44.888Z,58.00
2023-03-01T02:09:19.502Z,57.90
2023-03-01T02:11:46.752Z,57.90
2023-03-01T02:14:16.641Z,58.00
2023-03-01T02:16:44.952Z,58.00
2023-03-01T02:19:38.016Z,57.90
2023-03-01T02:22:23.498Z,57.90
2023-03-01T02:25:08.852Z,57.90
2023-03-01T02:27:58.762Z,57.80
2023-03-01T02:30:26.736Z,57.80
2023-03-01T02:33:03.858Z,57.80
2023-03-01T02:35:39.314Z,57.70
2023-03-01T02:38:10.017Z,57.70
2023-03-01T02:40:40.546Z,57.70
2023-03-01T02:43:11.271Z,57.80
2023-03-01T02:45:38.770Z,57.80
2023-03-01T02:48:06.169Z,57.80
2023-03-01T02:50:56.570Z,57.70
2023-03-01T02:53:34.961Z,57.90
2023-03-01T02:56:02.855Z,57.80
2023-03-01T02:58:30.220Z,57.70
2023-03-01T03:00:58.194Z,57.60
2023-03-01T03:03:25.580Z,57.60
2023-03-01T03:05:52.701Z,57.70
2023-03-01T03:08:25.083Z,57.50
2023-03-01T03:10:53.964Z,57.60
2023-03-01T03:13:23.133Z,57.70
2023-03-01T03:15:50.878Z,57.80
2023-03-01T03:18:18.494Z,57.80
2023-03-01T03:20:46.393Z,57.70
2023-03-01T03:23:14.214Z,57.70
2023-03-01T03:25:41.260Z,57.80
2023-03-01T03:28:11.726Z,57.90
2023-03-01T03:30:41.110Z,57.80
2023-03-01T03:33:11.197Z,57.90
2023-03-01T03:35:44.099Z,58.00
2023-03-01T03:38:19.079Z,58.00
2023-03-01T03:40:48.622Z,57.90
2023-03-01T03:43:18.324Z,58.00
2023-03-01T03:45:47.045Z,57.90
2023-03-01T03:48:14.816Z,57.90
2023-03-01T03:50:42.547Z,57.80
2023-03-01T03:53:12.188Z,57.80
2023-03-01T03:55:42.265Z,57.90
2023-03-01T03:58:11.340Z,57.90
2023-03-01T04:00:43.868Z,57.90
2023-03-01T04:03:13.870Z,57.80
2023-03-01T04:05:41.775Z,57.80
2023-03-01T04:08:09.806Z,57.80
2023-03-01T04:10:48.905Z,57.90
2023-03-01T04:13:20.780Z,57.80
2023-03-01T04:15:53.811Z,57.80
2023-03-01T04:18:23.794Z,57.80
2023-03-01T04:20:53.257Z,57.80
2023-03-01T04:23:22.074Z,57.70
2023-03-01T04:25:56.183Z,57.70
2023-03-01T04:28:25.625Z,57.60
2023-03-01T04:30:53.750Z,58.30
2023-03-01T04:33:21.383Z,57.70
2023-03-01T04:35:51.934Z,57.70
2023-03-01T04:38:20.363Z,57.80
2023-03-01T04:40:47.563Z,57.80
2023-03-01T04:43:15.778Z,57.90
2023-03-01T04:45:43.004Z,57.90
2023-03-01T04:48:10.262Z,57.90
2023-03-01T04:50:37.629Z,57.90
2023-03-01T04:53:04.758Z,58.00
2023-03-01T04:55:32.742Z,58.00
2023-03-01T04:58:00.019Z,58.00
2023-03-01T05:00:27.441Z,57.90
2023-03-01T05:03:01.061Z,57.80
2023-03-01T05:05:37.567Z,57.70
2023-03-01T05:08:07.874Z,57.60
2023-03-01T05:10:36.709Z,57.60
2023-03-01T05:13:05.155Z,57.60
2023-03-01T05:15:33.619Z,57.60
2023-03-01T05:18:01.595Z,57.70
2023-03-01T05:20:30.801Z,57.80
2023-03-01T05:23:01.023Z,57.80
2023-03-01T05:25:34.187Z,57.80
2023-03-01T05:28:05.383Z,57.80
2023-03-01T05:30:35.981Z,57.80
2023-03-01T05:33:03.502Z,57.80
2023-03-01T05:35:33.637Z,57.80
2023-03-01T05:38:00.838Z,57.80
2023-03-01T05:40:28.283Z,57.90
2023-03-01T05:42:57.262Z,57.90
2023-03-01T05:45:26.444Z,57.90
2023-03-01T05:47:56.111Z,57.90
2023-03-01T05:50:29.244Z,57.90
2023-03-01T05:53:08.998Z,58.00
2023-03-01T05:55:37.544Z,58.00
2023-03-01T05:58:07.773Z,58.00
2023-03-01T06:00:35.003Z,58.10
2023-03-01T06:03:02.850Z,58.80
2023-03-01T06:05:30.267Z,58.00
2023-03-01T06:08:10.686Z,58.00
2023-03-01T06:10:38.101Z,58.00
2023-03-01T06:13:06.462Z,58.00
2023-03-01T06:15:33.426Z,58.00
2023-03-01T06:18:00.688Z,58.10
2023-03-01T06:20:29.582Z,58.30
2023-03-01T06:22:57.401Z,58.50
2023-03-01T06:25:26.369Z,58.60
2023-03-01T06:27:53.755Z,58.80
2023-03-01T06:30:22.359Z,59.00
2023-03-01T06:32:49.820Z,59.30
2023-03-01T06:35:19.037Z,59.40
2023-03-01T06:37:47.773Z,59.40
2023-03-01T06:40:16.115Z,59.00
2023-03-01T06:42:48.182Z,58.40
2023-03-01T06:45:16.948Z,58.10
2023-03-01T06:47:44.010Z,57.60
2023-03-01T06:50:12.366Z,57.00
2023-03-01T06:52:40.113Z,56.50
2023-03-01T06:55:07.686Z,55.80
2023-03-01T06:57:34.840Z,55.10
2023-03-01T07:00:02.092Z,54.40
2023-03-01T07:02:29.365Z,53.60
2023-03-01T07:04:56.399Z,52.90
2023-03-01T07:07:23.714Z,52.00
2023-03-01T07:09:50.978Z,51.40
2023-03-01T07:12:18.441Z,50.80
2023-03-01T07:14:45.716Z,50.20
2023-03-01T07:17:13.044Z,49.70
2023-03-01T07:19:40.231Z,49.30
2023-03-01T07:22:08.949Z,48.50
2023-03-01T07:24:36.184Z,48.00
2023-03-01T07:27:03.742Z,47.40
2023-03-01T07:29:31.282Z,46.70
2023-03-01T07:31:58.383Z,46.10
2023-03-01T07:34:25.850Z,45.50
2023-03-01T07:36:53.433Z,45.30
2023-03-01T07:39:20.844Z,44.70
2023-03-01T07:41:47.923Z,44.30
2023-03-01T07:44:14.935Z,43.70
2023-03-01T07:46:42.234Z,43.10
2023-03-01T07:49:09.590Z,42.80
2023-03-01T07:51:37.044Z,42.40
2023-03-01T07:54:04.188Z,41.90
2023-03-01T07:56:31.503Z,41.80
2023-03-01T07:59:00.627Z,41.20
2023-03-01T08:01:27.876Z,40.90
2023-03-01T08:03:55.044Z,40.10
2023-03-01T08:06:22.616Z,38.50
2023-03-01T08:08:50.003Z,38.40
2023-03-01T08:11:17.341Z,38.30
2023-03-01T08:13:53.345Z,38.40
2023-03-01T08:16:21.857Z,38.20
2023-03-01T08:18:49.320Z,37.50
2023-03-01T08:21:18.527Z,37.10
2023-03-01T08:23:45.872Z,36.00
2023-03-01T08:26:19.714Z,36.30
2023-03-01T08:28:47.485Z,35.80
2023-03-01T08:31:27.411Z,35.90
2023-03-01T08:33:57.076Z,35.20
2023-03-01T08:36:38.109Z,34.80
2023-03-01T08:39:06.164Z,35.40
2023-03-01T08:41:33.351Z,35.00
2023-03-01T08:44:00.518Z,34.10
2023-03-01T08:46:33.200Z,33.40
2023-03-01T08:49:00.780Z,33.50
2023-03-01T08:51:28.260Z,33.60
2023-03-01T08:53:55.506Z,32.80
2023-03-01T08:56:22.628Z,32.90
2023-03-01T08:58:50.705Z,33.10
2023-03-01T09:01:20.100Z,32.60
2023-03-01T09:03:48.339Z,32.00
2023-03-01T09:06:16.848Z,32.50
2023-03-01T09:08:47.080Z,32.40
2023-03-01T09:11:17.820Z,31.90
2023-03-01T09:13:47.478Z,31.70
2023-03-01T09:16:18.678Z,31.40
2023-03-01T09:18:53.532Z,30.90
2023-03-01T09:21:40.306Z,31.20
2023-03-01T09:24:15.421Z,31.10
2023-03-01T09:26:43.110Z,30.30
2023-03-01T09:29:10.975Z,30.20
2023-03-01T09:31:38.262Z,30.20
2023-03-01T09:34:06.158Z,29.60
2023-03-01T09:36:34.364Z,29.30
2023-03-01T09:39:02.717Z,28.70
2023-03-01T09:42:12.851Z,29.40
2023-03-01T09:45:00.440Z,28.50
2023-03-01T09:47:37.514Z,28.60
2023-03-01T09:50:22.305Z,28.50
2023-03-01T09:53:14.290Z,28.10
2023-03-01T09:55:44.922Z,27.70
2023-03-01T09:58:30.268Z,27.80
2023-03-01T10:01:03.341Z,28.20
2023-03-01T10:03:43.976Z,28.30
2023-03-01T10:06:33.941Z,28.30
2023-03-01T10:09:22.244Z,29.10
2023-03-01T10:11:57.960Z,29.20
2023-03-01T10:14:34.175Z,29.40
2023-03-01T10:17:06.380Z,29.80
2023-03-01T10:19:46.244Z,29.70
2023-03-01T10:22:32.596Z,28.90
2023-03-01T10:25:03.253Z,29.20
2023-03-01T10:27:47.835Z,28.50
2023-03-01T10:30:22.966Z,28.80
2023-03-01T10:32:53.571Z,28.70
2023-03-01T10:35:29.837Z,28.50
2023-03-01T10:38:11.204Z,28.30
2023-03-01T10:40:58.446Z,28.10
2023-03-01T10:43:30.936Z,28.60
2023-03-01T10:45:58.145Z,28.20
2023-03-01T10:48:28.616Z,28.50
2023-03-01T10:51:02.200Z,28.40
2023-03-01T10:53:35.683Z,27.60
2023-03-01T10:56:07.359Z,27.70
2023-03-01T10:58:36.544Z,27.70
2023-03-01T11:01:34.016Z,27.50
2023-03-01T11:04:19.469Z,28.00
2023-03-01T11:07:00.505Z,28.00
2023-03-01T11:09:38.534Z,28.50
2023-03-01T11:12:17.015Z,28.70
2023-03-01T11:14:55.019Z,28.90
2023-03-01T11:17:47.959Z,28.10
2023-03-01T11:20:26.933Z,28.00
2023-03-01T11:22:57.833Z,28.20
2023-03-01T11:25:37.704Z,28.50
2023-03-01T11:28:07.077Z,28.40
2023-03-01T11:31:08.794Z,28.60
2023-03-01T11:34:04.159Z,28.30
2023-03-01T11:36:42.684Z,28.90
2023-03-01T11:39:33.887Z,28.90
2023-03-01T11:42:19.078Z,28.80
2023-03-01T11:44:52.450Z,28.80
2023-03-01T11:47:46.020Z,28.60
2023-03-01T11:50:45.536Z,28.10
2023-03-01T11:53:49.932Z,27.80
2023-03-01T11:56:33.181Z,27.70
2023-03-01T11:59:11.021Z,28.30
2023-03-01T12:01:48.345Z,28.60
2023-03-01T12:04:28.073Z,29.00
2023-03-01T12:07:11.825Z,29.20
2023-03-01T12:09:46.257Z,29.10
2023-03-01T12:12:47.631Z,29.30
2023-03-01T12:15:34.608Z,28.70
2023-03-01T12:18:18.118Z,29.30
2023-03-01T12:20:54.672Z,29.20
2023-03-01T12:24:05.822Z,29.00
2023-03-01T12:26:54.506Z,29.10
2023-03-01T12:29:38.714Z,29.00
2023-03-01T12:32:36.510Z,29.20
2023-03-01T12:35:37.405Z,29.10
2023-03-01T12:38:18.400Z,29.50
2023-03-01T12:41:21.224Z,29.50
2023-03-01T12:44:10.131Z,29.00
2023-03-01T12:47:08.152Z,29.30
2023-03-01T12:49:45.628Z,29.40
2023-03-01T12:52:38.318Z,29.20
2023-03-01T12:55:19.181Z,29.60
2023-03-01T12:58:48.797Z,28.50
2023-03-01T13:01:44.624Z,28.60
2023-03-01T13:04:19.080Z,27.60
2023-03-01T13:07:41.015Z,27.50
2023-03-01T13:10:30.261Z,26.40
2023-03-01T13:13:04.241Z,26.40
2023-03-01T13:15:39.018Z,26.80
2023-03-01T13:18:21.155Z,27.10
2023-03-01T13:21:08.364Z,26.90
2023-03-01T13:23:40.754Z,27.20
2023-03-01T13:26:19.043Z,28.10
2023-03-01T13:28:51.137Z,28.60
2023-03-01T13:31:21.585Z,28.90
2023-03-01T13:33:49.502Z,29.80
2023-03-01T13:36:29.141Z,30.60
2023-03-01T13:39:00.617Z,30.70
2023-03-01T13:41:43.989Z,30.70
2023-03-01T13:44:27.360Z,31.30
2023-03-01T13:47:05.085Z,31.40
2023-03-01T13:49:51.718Z,31.40
2023-03-01T13:52:54.585Z,31.20
2023-03-01T13:55:48.970Z,31.70
2023-03-01T13:58:34.655Z,32.10
2023-03-01T14:01:04.243Z,32.10
2023-03-01T14:03:33.276Z,32.20
2023-03-01T14:06:16.215Z,32.50
2023-03-01T14:08:46.908Z,32.40
2023-03-01T14:11:38.696Z,32.50
2023-03-01T14:14:32.595Z,32.10
2023-03-01T14:17:24.971Z,32.80
2023-03-01T14:20:06.113Z,32.90
2023-03-01T14:22:39.923Z,32.90
2023-03-01T14:25:18.127Z,33.00
2023-03-01T14:27:46.000Z,32.90
2023-03-01T14:30:20.310Z,32.80
2023-03-01T14:32:56.488Z,32.60
2023-03-01T14:35:27.664Z,33.00
2023-03-01T14:37:54.805Z,32.80
2023-03-01T14:40:29.047Z,33.00
2023-03-01T14:42:59.949Z,33.10
2023-03-01T14:45:30.350Z,33.40
2023-03-01T14:48:02.251Z,33.50
2023-03-01T14:50:37.323Z,33.60
2023-03-01T14:53:06.569Z,33.80
2023-03-01T14:55:43.487Z,33.90
2023-03-01T14:58:15.649Z,34.20
2023-03-01T15:00:55.877Z,34.30
2023-03-01T15:03:35.701Z,34.50
2023-03-01T15:06:04.913Z,34.50
2023-03-01T15:08:36.129Z,34.50
2023-03-01T15:11:26.065Z,34.80
2023-03-01T15:13:53.983Z,34.90
2023-03-01T15:16:26.022Z,34.80
2023-03-01T15:19:00.893Z,34.60
2023-03-01T15:21:33.861Z,34.60
2023-03-01T15:24:20.248Z,34.70
2023-03-01T15:26:54.961Z,34.80
2023-03-01T15:29:41.577Z,35.00
2023-03-01T15:32:24.244Z,35.00
2023-03-01T15:34:51.944Z,34.80
2023-03-01T15:37:54.715Z,34.90
2023-03-01T15:40:32.556Z,35.20
2023-03-01T15:43:01.516Z,35.30
2023-03-01T15:45:30.607Z,35.50
2023-03-01T15:48:27.498Z,35.50
2023-03-01T15:50:58.716Z,35.80
2023-03-01T15:53:27.546Z,36.00
2023-03-01T15:55:55.767Z,36.00
2023-03-01T15:58:25.080Z,36.80
2023-03-01T16:01:01.889Z,36.20
2023-03-01T16:03:31.152Z,36.50
2023-03-01T16:05:58.357Z,36.60
2023-03-01T16:08:25.530Z,36.70
2023-03-01T16:10:54.675Z,36.70
2023-03-01T16:13:22.025Z,36.70
2023-03-01T16:15:49.362Z,36.80
2023-03-01T16:18:16.509Z,36.90
2023-03-01T16:20:44.032Z,37.00
2023-03-01T16:23:12.578Z,37.10
2023-03-01T16:25:39.909Z,37.20
2023-03-01T16:28:10.412Z,37.20
2023-03-01T16:30:40.634Z,37.30
2023-03-01T16:33:26.445Z,37.40
2023-03-01T16:35:59.466Z,37.50
2023-03-01T16:38:26.768Z,37.60
2023-03-01T16:40:54.452Z,37.70
2023-03-01T16:43:21.548Z,37.70
2023-03-01T16:45:48.756Z,37.70
2023-03-01T16:48:16.157Z,38.00
2023-03-01T16:50:43.353Z,38.10
2023-03-01T16:53:10.775Z,38.20
2023-03-01T16:55:38.987Z,38.20
2023-03-01T16:58:06.776Z,38.50
2023-03-01T17:00:34.056Z,38.60
2023-03-01T17:03:01.305Z,39.00
2023-03-01T17:05:28.677Z,39.20
2023-03-01T17:07:56.960Z,39.60
2023-03-01T17:10:24.074Z,39.60
2023-03-01T17:12:51.300Z,39.80
2023-03-01T17:15:18.553Z,40.20
2023-03-01T17:17:45.655Z,40.50
2023-03-01T17:20:13.211Z,40.80
2023-03-01T17:22:40.295Z,41.00
2023-03-01T17:25:23.634Z,41.00
2023-03-01T17:27:51.074Z,41.90
2023-03-01T17:30:18.508Z,41.20
2023-03-01T17:32:46.797Z,41.30
2023-03-01T17:35:14.035Z,41.40
2023-03-01T17:37:46.474Z,41.70
2023-03-01T17:40:13.877Z,42.00
2023-03-01T17:42:40.793Z,42.20
2023-03-01T17:45:08.504Z,42.40
2023-03-01T17:47:35.619Z,43.00
2023-03-01T17:50:03.966Z,42.50
2023-03-01T17:52:31.454Z,42.60
2023-03-01T17:54:58.745Z,42.80
2023-03-01T17:57:25.890Z,43.00
2023-03-01T17:59:52.974Z,43.30
2023-03-01T18:02:20.592Z,43.20
2023-03-01T18:04:47.934Z,43.40
2023-03-01T18:07:15.110Z,43.50
2023-03-01T18:09:42.360Z,43.60
2023-03-01T18:12:10.767Z,43.90
2023-03-01T18:14:38.069Z,43.90
2023-03-01T18:17:11.952Z,44.00
2023-03-01T18:19:41.411Z,44.10
2023-03-01T18:22:09.155Z,44.20
2023-03-01T18:24:37.680Z,44.40
2023-03-01T18:27:05.078Z,44.60
2023-03-01T18:29:32.275Z,44.90
2023-03-01T18:31:59.656Z,45.20
2023-03-01T18:34:28.815Z,45.30
2023-03-01T18:37:08.733Z,46.00
2023-03-01T18:39:37.493Z,45.40
2023-03-01T18:42:04.920Z,45.60
2023-03-01T18:44:32.387Z,45.90
2023-03-01T18:46:59.920Z,46.00
2023-03-01T18:49:27.066Z,46.20
2023-03-01T18:51:54.776Z,46.20
2023-03-01T18:54:22.360Z,46.40
2023-03-01T18:56:49.988Z,46.50
2023-03-01T18:59:17.513Z,46.60
2023-03-01T19:01:44.929Z,46.70
2023-03-01T19:04:13.082Z,46.70
2023-03-01T19:06:40.659Z,46.80
2023-03-01T19:09:09.394Z,46.80
2023-03-01T19:11:37.724Z,46.80
2023-03-01T19:14:05.723Z,46.80
2023-03-01T19:16:34.577Z,46.90
2023-03-01T19:19:03.928Z,47.00
2023-03-01T19:21:32.749Z,47.20
2023-03-01T19:24:00.381Z,48.20
2023-03-01T19:26:28.497Z,47.70
2023-03-01T19:28:56.702Z,48.00
2023-03-01T19:31:28.889Z,48.30
2023-03-01T19:34:09.955Z,48.40
2023-03-01T19:36:39.213Z,48.50
2023-03-01T19:39:07.738Z,48.70
2023-03-01T19:41:35.300Z,48.90
2023-03-01T19:44:04.639Z,49.10
2023-03-01T19:46:33.664Z,49.10
2023-03-01T19:49:03.291Z,49.30
2023-03-01T19:51:33.489Z,49.40
2023-03-01T19:54:00.951Z,50.10
2023-03-01T19:56:28.679Z,49.40
2023-03-01T19:59:00.581Z,49.40
2023-03-01T20:01:33.052Z,49.40
2023-03-01T20:04:01.628Z,49.50
2023-03-01T20:06:30.321Z,49.70
2023-03-01T20:08:57.951Z,49.80
2023-03-01T20:11:26.861Z,49.90
2023-03-01T20:13:54.030Z,50.10
2023-03-01T20:16:23.069Z,50.10
2023-03-01T20:18:50.684Z,50.20
2023-03-01T20:21:26.244Z,50.50
2023-03-01T20:23:54.002Z,50.60
2023-03-01T20:26:22.585Z,50.60
2023-03-01T20:28:52.032Z,50.70
2023-03-01T20:31:21.304Z,50.80
2023-03-01T20:33:48.789Z,50.80
2023-03-01T20:36:16.414Z,50.50
2023-03-01T20:38:43.628Z,50.40
2023-03-01T20:41:13.089Z,50.30
2023-03-01T20:43:42.317Z,50.30
2023-03-01T20:46:12.445Z,50.40
2023-03-01T20:48:44.670Z,50.70
2023-03-01T20:51:13.383Z,50.70
2023-03-01T20:53:41.484Z,50.80
2023-03-01T20:56:14.792Z,50.90
2023-03-01T20:58:42.894Z,51.00
2023-03-01T21:01:14.480Z,51.10
2023-03-01T21:03:41.910Z,51.20
2023-03-01T21:06:09.400Z,51.30
2023-03-01T21:08:37.564Z,51.40
2023-03-01T21:11:06.347Z,51.40
2023-03-01T21:13:35.578Z,51.50
2023-03-01T21:16:07.927Z,51.50
2023-03-01T21:18:38.608Z,51.60
2023-03-01T21:21:15.366Z,51.50
2023-03-01T21:23:43.828Z,51.70
2023-03-01T21:26:24.997Z,51.90
2023-03-01T21:29:01.373Z,51.90
2023-03-01T21:31:32.300Z,52.00
2023-03-01T21:34:01.525Z,52.00
2023-03-01T21:36:29.506Z,52.20
2023-03-01T21:38:58.643Z,52.30
2023-03-01T21:41:28.739Z,52.30
2023-03-01T21:43:57.686Z,52.40
2023-03-01T21:46:26.901Z,52.40
2023-03-01T21:48:55.240Z,52.40
2023-03-01T21:51:25.429Z,52.40
2023-03-01T21:53:54.421Z,52.50
2023-03-01T21:56:25.550Z,52.60
2023-03-01T21:58:53.177Z,52.70
2023-03-01T22:01:24.722Z,52.60
2023-03-01T22:03:52.033Z,52.60
2023-03-01T22:06:40.994Z,52.70
2023-03-01T22:09:14.366Z,52.70
2023-03-01T22:11:44.287Z,52.60
2023-03-01T22:14:13.928Z,52.60
2023-03-01T22:16:43.431Z,52.60
2023-03-01T22:19:10.651Z,52.70
2023-03-01T22:21:43.057Z,52.80
2023-03-01T22:24:11.567Z,52.90
2023-03-01T22:26:41.577Z,53.10
2023-03-01T22:29:13.258Z,53.00
2023-03-01T22:31:41.387Z,53.00
2023-03-01T22:34:10.129Z,53.20
2023-03-01T22:36:40.505Z,53.20
2023-03-01T22:39:08.011Z,53.30
2023-03-01T22:41:45.542Z,53.40
2023-03-01T22:44:17.273Z,53.40
2023-03-01T22:46:45.218Z,53.60
2023-03-01T22:49:12.404Z,53.60
2023-03-01T22:51:41.884Z,53.50
2023-03-01T22:54:10.568Z,54.00
2023-03-01T22:56:39.259Z,53.50
2023-03-01T22:59:09.728Z,53.60
2023-03-01T23:01:38.708Z,53.70
2023-03-01T23:04:06.345Z,53.70
2023-03-01T23:06:33.923Z,53.70
2023-03-01T23:09:03.985Z,53.90
2023-03-01T23:11:31.333Z,53.90
2023-03-01T23:13:59.499Z,53.90
2023-03-01T23:16:28.890Z,54.00
2023-03-01T23:19:00.041Z,54.00
2023-03-01T23:21:27.767Z,54.10
2023-03-01T23:23:56.077Z,54.00
2023-03-01T23:26:27.020Z,54.50
2023-03-01T23:28:55.713Z,54.20
2023-03-01T23:31:23.196Z,54.40
2023-03-01T23:33:50.278Z,54.40
2023-03-01T23:36:21.705Z,54.50
2023-03-01T23:38:50.950Z,54.40
2023-03-01T23:41:20.564Z,54.50
2023-03-01T23:43:50.295Z,54.70
2023-03-01T23:46:19.405Z,54.80
2023-03-01T23:48:46.974Z,54.90
2023-03-01T23:51:15.408Z,54.90
2023-03-01T23:53:54.207Z,54.90
2023-03-01T23:56:31.519Z,54.80
2023-03-01T23:59:01.399Z,54.80
